createdAt,value
2018-04-22T00:01:13.390Z,76.18
2018-04-22T00:03:39.170Z,77.55
2018-04-22T00:06:04.952Z,78.25
2018-04-22T00:08:30.732Z,77.46
2018-04-22T00:10:56.502Z,77.42
2018-04-22T00:13:22.303Z,78.25
2018-04-22T00:15:48.092Z,76.69
2018-04-22T00:18:13.870Z,76.97
2018-04-22T00:20:39.666Z,75.79
2018-04-22T00:23:05.454Z,76.63
2018-04-22T00:25:31.224Z,78.18
2018-04-22T00:27:57.016Z,78.74
2018-04-22T00:30:22.803Z,79.52
2018-04-22T00:32:48.577Z,81.03
2018-04-22T00:35:14.369Z,79.13
2018-04-22T00:37:40.141Z,78.65
2018-04-22T00:40:05.923Z,77.91
2018-04-22T00:42:31.706Z,76.88
2018-04-22T00:44:57.497Z,79.90
2018-04-22T00:47:23.278Z,78.09
2018-04-22T00:49:49.050Z,79.46
2018-04-22T00:52:14.847Z,78.83
2018-04-22T00:54:40.632Z,79.54
2018-04-22T00:57:06.429Z,80.86
2018-04-22T00:59:32.223Z,79.02
2018-04-22T01:01:58.050Z,80.36
2018-04-22T01:04:23.845Z,81.06
2018-04-22T01:06:49.646Z,82.40
2018-04-22T01:09:15.437Z,81.77
2018-04-22T01:11:41.217Z,83.32
2018-04-22T01:14:07.006Z,83.10
2018-04-22T01:16:32.778Z,82.71
2018-04-22T01:18:58.647Z,83.72
2018-04-22T01:21:24.441Z,84.21
2018-04-22T01:23:50.229Z,81.95
2018-04-22T01:26:16.030Z,81.64
2018-04-22T01:28:41.816Z,82.29
2018-04-22T01:31:07.586Z,83.19
2018-04-22T01:33:33.385Z,83.62
2018-04-22T01:35:59.171Z,82.17
2018-04-22T01:38:24.942Z,80.72
2018-04-22T01:40:50.734Z,80.85
2018-04-22T01:43:16.538Z,80.99
2018-04-22T01:45:42.334Z,82.02
2018-04-22T01:48:08.114Z,80.79
2018-04-22T01:50:33.892Z,81.16
2018-04-22T01:52:59.694Z,82.59
2018-04-22T01:55:25.473Z,81.78
2018-04-22T01:57:51.326Z,80.72
2018-04-22T02:00:17.149Z,81.60
2018-04-22T02:02:42.956Z,83.07
2018-04-22T02:05:08.739Z,82.09
2018-04-22T02:07:34.525Z,80.58
2018-04-22T02:10:00.305Z,81.02
2018-04-22T02:12:26.085Z,81.34
2018-04-22T02:14:51.849Z,81.24
2018-04-22T02:17:17.630Z,81.05
2018-04-22T02:19:43.409Z,80.71
2018-04-22T02:22:09.207Z,81.08
2018-04-22T02:24:34.977Z,81.46
2018-04-22T02:27:00.755Z,82.09
2018-04-22T02:29:26.556Z,81.25
2018-04-22T02:31:52.331Z,81.75
2018-04-22T02:34:18.110Z,82.01
2018-04-22T02:36:43.916Z,81.08
2018-04-22T02:39:09.701Z,81.74
2018-04-22T02:41:35.479Z,81.32
2018-04-22T02:44:01.288Z,80.23
2018-04-22T02:46:27.078Z,83.09
2018-04-22T02:48:52.849Z,83.58
2018-04-22T02:51:18.654Z,82.92
2018-04-22T02:53:44.431Z,81.93
2018-04-22T02:56:10.205Z,81.02
2018-04-22T02:58:36.011Z,81.14
2018-04-22T03:01:01.800Z,80.40
2018-04-22T03:03:27.581Z,83.27
2018-04-22T03:05:53.377Z,83.91
2018-04-22T03:08:19.157Z,84.15
2018-04-22T03:10:44.944Z,83.29
2018-04-22T03:13:10.717Z,82.88
2018-04-22T03:15:36.486Z,83.09
2018-04-22T03:18:02.321Z,83.89
2018-04-22T03:20:28.120Z,81.59
2018-04-22T03:22:53.933Z,81.78
2018-04-22T03:25:19.749Z,81.85
2018-04-22T03:27:45.553Z,82.16
2018-04-22T03:30:11.346Z,82.85
2018-04-22T03:32:37.129Z,81.47
2018-04-22T03:35:02.916Z,82.54
2018-04-22T03:37:28.705Z,82.79
2018-04-22T03:39:54.526Z,82.88
2018-04-22T03:42:20.328Z,83.16
2018-04-22T03:44:46.121Z,83.15
2018-04-22T03:47:11.914Z,83.60
2018-04-22T03:49:37.709Z,84.52
2018-04-22T03:52:03.492Z,84.75
2018-04-22T03:54:29.291Z,87.33
2018-04-22T03:56:55.394Z,86.57
2018-04-22T03:59:21.173Z,87.02
2018-04-22T04:01:47.014Z,87.12
2018-04-22T04:04:12.802Z,87.98
2018-04-22T04:06:38.651Z,87.50
2018-04-22T04:09:04.469Z,87.77
2018-04-22T04:11:30.262Z,87.59
2018-04-22T04:13:56.209Z,87.20
2018-04-22T04:16:21.988Z,86.49
2018-04-22T04:19:01.136Z,86.71
2018-04-22T04:21:39.321Z,86.77
2018-04-22T04:27:24.556Z,85.86
2018-04-22T04:29:50.345Z,86.09
2018-04-22T04:32:16.135Z,85.59
2018-04-22T04:34:41.940Z,86.21
2018-04-22T04:37:07.743Z,85.55
2018-04-22T04:39:33.543Z,86.27
2018-04-22T04:41:59.318Z,86.31
2018-04-22T04:44:25.109Z,85.23
2018-04-22T04:46:51.535Z,84.67
2018-04-22T04:49:17.309Z,83.54
2018-04-22T04:51:43.077Z,82.35
2018-04-22T04:54:09.062Z,83.22
2018-04-22T04:56:34.882Z,84.96
2018-04-22T04:59:00.671Z,85.73
2018-04-22T05:01:26.481Z,85.01
2018-04-22T05:03:52.272Z,85.53
2018-04-22T05:06:18.066Z,85.89
2018-04-22T05:08:43.865Z,85.91
2018-04-22T05:11:16.663Z,86.39
2018-04-22T05:13:42.437Z,86.41
2018-04-22T05:16:08.238Z,85.77
2018-04-22T05:18:34.036Z,85.57
2018-04-22T05:20:59.841Z,85.44
2018-04-22T05:23:25.625Z,85.06
2018-04-22T05:25:51.410Z,84.68
2018-04-22T05:28:17.199Z,84.59
2018-04-22T05:30:42.977Z,84.38
2018-04-22T05:33:08.766Z,84.54
2018-04-22T05:35:34.586Z,85.02
2018-04-22T05:38:00.377Z,84.93
2018-04-22T05:40:26.153Z,84.59
2018-04-22T05:42:51.959Z,83.79
2018-04-22T05:45:17.738Z,84.02
2018-04-22T05:47:43.530Z,83.62
2018-04-22T05:50:09.314Z,83.11
2018-04-22T05:52:35.090Z,82.56
2018-04-22T05:55:00.868Z,82.57
2018-04-22T05:57:26.906Z,82.31
2018-04-22T05:59:52.697Z,82.03
2018-04-22T06:02:18.514Z,81.67
2018-04-22T06:04:44.278Z,81.36
2018-04-22T06:07:10.075Z,81.25
2018-04-22T06:09:35.857Z,81.68
2018-04-22T06:12:01.649Z,80.51
2018-04-22T06:14:27.440Z,80.26
2018-04-22T06:16:53.231Z,79.36
2018-04-22T06:19:19.010Z,79.03
2018-04-22T06:21:44.826Z,79.04
2018-04-22T06:24:10.629Z,78.15
2018-04-22T06:26:36.414Z,78.06
2018-04-22T06:29:02.188Z,77.50
2018-04-22T06:31:28.167Z,76.96
2018-04-22T06:33:54.002Z,77.46
2018-04-22T06:36:19.796Z,77.38
2018-04-22T06:38:45.625Z,79.73
2018-04-22T06:41:18.527Z,78.32
2018-04-22T06:43:44.323Z,76.90
2018-04-22T06:46:10.132Z,77.60
2018-04-22T06:48:35.910Z,73.00
2018-04-22T06:51:01.690Z,72.76
2018-04-22T06:53:27.490Z,71.69
2018-04-22T06:55:53.277Z,70.00
2018-04-22T06:58:19.061Z,71.25
2018-04-22T07:00:44.850Z,70.56
2018-04-22T07:03:10.617Z,70.15
2018-04-22T07:05:36.398Z,68.84
2018-04-22T07:08:02.190Z,67.44
2018-04-22T07:10:27.977Z,67.25
2018-04-22T07:12:53.773Z,67.36
2018-04-22T07:15:19.565Z,68.20
2018-04-22T07:17:45.343Z,67.44
2018-04-22T07:20:11.149Z,67.04
2018-04-22T07:22:37.113Z,66.96
2018-04-22T07:25:02.924Z,66.73
2018-04-22T07:27:28.713Z,65.68
2018-04-22T07:29:54.524Z,64.99
2018-04-22T07:32:20.318Z,64.24
2018-04-22T07:34:46.089Z,62.70
2018-04-22T07:37:11.903Z,61.48
2018-04-22T07:39:37.674Z,61.64
2018-04-22T07:42:07.346Z,62.22
2018-04-22T07:44:33.168Z,62.25
2018-04-22T07:46:58.945Z,62.26
2018-04-22T07:49:24.748Z,62.20
2018-04-22T07:51:50.722Z,61.29
2018-04-22T07:54:16.546Z,61.77
2018-04-22T07:56:42.342Z,60.95
2018-04-22T07:59:08.418Z,60.30
2018-04-22T08:01:34.266Z,59.55
2018-04-22T08:04:00.069Z,59.19
2018-04-22T08:06:26.250Z,59.40
2018-04-22T08:08:53.083Z,58.73
2018-04-22T08:11:18.915Z,57.92
2018-04-22T08:13:44.765Z,58.08
2018-04-22T08:16:12.832Z,57.90
2018-04-22T08:18:39.230Z,57.50
2018-04-22T08:21:05.253Z,56.68
2018-04-22T08:23:31.070Z,56.64
2018-04-22T08:25:56.878Z,56.06
2018-04-22T08:28:22.694Z,56.69
2018-04-22T08:30:48.496Z,56.10
2018-04-22T08:33:14.356Z,55.45
2018-04-22T08:35:40.267Z,55.32
2018-04-22T08:38:06.111Z,55.05
2018-04-22T08:40:31.911Z,54.51
2018-04-22T08:42:57.689Z,54.32
2018-04-22T08:45:23.530Z,52.97
2018-04-22T08:47:49.321Z,52.95
2018-04-22T08:50:15.101Z,52.33
2018-04-22T08:52:40.898Z,51.13
2018-04-22T08:55:06.718Z,50.62
2018-04-22T08:57:32.493Z,51.57
2018-04-22T08:59:58.323Z,51.09
2018-04-22T09:02:24.102Z,51.67
2018-04-22T09:04:49.904Z,51.34
2018-04-22T09:07:16.000Z,50.81
2018-04-22T09:09:41.785Z,49.29
2018-04-22T09:12:07.585Z,49.21
2018-04-22T09:14:33.394Z,49.29
2018-04-22T09:16:59.177Z,49.42
2018-04-22T09:19:25.249Z,48.62
2018-04-22T09:21:51.025Z,48.77
2018-04-22T09:24:16.794Z,48.18
2018-04-22T09:26:42.576Z,47.61
2018-04-22T09:29:08.378Z,47.48
2018-04-22T09:31:34.173Z,47.46
2018-04-22T09:33:59.970Z,46.28
2018-04-22T09:36:25.767Z,44.86
2018-04-22T09:38:51.737Z,44.84
2018-04-22T09:41:17.541Z,45.46
2018-04-22T09:43:43.317Z,46.55
2018-04-22T09:46:09.141Z,47.30
2018-04-22T09:48:34.954Z,46.16
2018-04-22T09:51:00.744Z,43.97
2018-04-22T09:53:26.810Z,45.40
2018-04-22T09:55:52.590Z,45.63
2018-04-22T09:58:18.394Z,44.59
2018-04-22T10:00:46.113Z,44.23
2018-04-22T10:03:11.936Z,44.12
2018-04-22T10:05:43.940Z,42.14
2018-04-22T10:08:09.742Z,42.07
2018-04-22T10:10:35.525Z,42.67
2018-04-22T10:13:01.318Z,41.32
2018-04-22T10:15:27.126Z,42.38
2018-04-22T10:17:52.927Z,42.03
2018-04-22T10:20:18.722Z,40.21
2018-04-22T10:22:44.522Z,40.88
2018-04-22T10:25:10.304Z,39.69
2018-04-22T10:27:36.081Z,38.37
2018-04-22T10:30:01.881Z,39.60
2018-04-22T10:32:27.665Z,39.41
2018-04-22T10:34:53.471Z,38.11
2018-04-22T10:37:19.283Z,38.49
2018-04-22T10:39:45.318Z,38.19
2018-04-22T10:42:11.167Z,37.93
2018-04-22T10:44:37.369Z,38.47
2018-04-22T10:47:03.169Z,37.76
2018-04-22T10:49:28.983Z,36.83
2018-04-22T10:51:54.756Z,37.58
2018-04-22T10:54:20.537Z,37.83
2018-04-22T10:56:46.366Z,37.52
2018-04-22T10:59:12.147Z,36.29
2018-04-22T11:01:37.922Z,36.31
2018-04-22T11:04:03.731Z,36.41
2018-04-22T11:06:29.519Z,36.74
2018-04-22T11:08:55.320Z,36.80
2018-04-22T11:11:21.205Z,35.45
2018-04-22T11:13:46.988Z,36.13
2018-04-22T11:16:12.763Z,33.84
2018-04-22T11:18:38.550Z,34.41
2018-04-22T11:21:04.374Z,34.92
2018-04-22T11:23:30.177Z,35.06
2018-04-22T11:25:55.989Z,34.14
2018-04-22T11:28:21.771Z,34.06
2018-04-22T11:30:47.565Z,32.75
2018-04-22T11:33:13.370Z,34.47
2018-04-22T11:35:39.153Z,34.55
2018-04-22T11:38:04.946Z,34.84
2018-04-22T11:40:30.760Z,32.52
2018-04-22T11:42:56.545Z,32.37
2018-04-22T11:45:22.326Z,31.53
2018-04-22T11:47:48.221Z,31.95
2018-04-22T11:50:14.013Z,34.24
2018-04-22T11:52:39.822Z,32.63
2018-04-22T11:55:05.628Z,33.32
2018-04-22T11:57:31.413Z,34.97
2018-04-22T11:59:57.237Z,35.26
2018-04-22T12:02:23.036Z,35.35
2018-04-22T12:04:48.844Z,34.12
2018-04-22T12:07:14.689Z,35.19
2018-04-22T12:09:40.477Z,33.83
2018-04-22T12:12:06.254Z,33.13
2018-04-22T12:14:32.412Z,34.23
2018-04-22T12:16:58.218Z,33.52
2018-04-22T12:19:24.009Z,32.22
2018-04-22T12:21:49.790Z,32.31
2018-04-22T12:24:15.585Z,32.39
2018-04-22T12:26:41.397Z,31.97
2018-04-22T12:29:07.192Z,31.51
2018-04-22T12:31:32.990Z,31.69
2018-04-22T12:33:58.796Z,31.56
2018-04-22T12:36:24.581Z,31.42
2018-04-22T12:38:50.361Z,31.22
2018-04-22T12:41:16.195Z,31.14
2018-04-22T12:43:42.007Z,30.52
2018-04-22T12:46:07.785Z,30.65
2018-04-22T12:48:33.578Z,30.56
2018-04-22T12:50:59.389Z,30.75
2018-04-22T12:53:25.187Z,31.48
2018-04-22T12:55:50.962Z,32.17
2018-04-22T12:58:16.746Z,32.36
2018-04-22T13:00:42.553Z,33.19
2018-04-22T13:03:08.374Z,33.12
2018-04-22T13:05:34.190Z,33.61
2018-04-22T13:08:00.111Z,32.02
2018-04-22T13:10:25.903Z,31.21
2018-04-22T13:12:51.698Z,30.89
2018-04-22T13:15:17.495Z,30.28
2018-04-22T13:17:43.281Z,29.41
2018-04-22T13:20:09.085Z,29.82
2018-04-22T13:22:34.899Z,28.46
2018-04-22T13:25:00.685Z,29.15
2018-04-22T13:27:26.465Z,27.71
2018-04-22T13:29:52.286Z,27.25
2018-04-22T13:32:18.077Z,28.33
2018-04-22T13:34:43.930Z,26.63
2018-04-22T13:37:09.799Z,26.48
2018-04-22T13:39:35.559Z,26.20
2018-04-22T13:42:01.353Z,25.33
2018-04-22T13:44:27.377Z,25.01
2018-04-22T13:46:53.221Z,26.12
2018-04-22T13:49:19.014Z,26.44
2018-04-22T13:51:44.823Z,25.23
2018-04-22T13:54:10.607Z,25.40
2018-04-22T13:56:36.399Z,24.77
2018-04-22T13:59:02.230Z,26.08
2018-04-22T14:01:28.031Z,24.84
2018-04-22T14:03:53.886Z,22.82
2018-04-22T14:06:19.690Z,23.46
2018-04-22T14:08:45.478Z,22.49
2018-04-22T14:11:11.261Z,22.79
2018-04-22T14:13:37.058Z,23.93
2018-04-22T14:16:02.865Z,25.35
2018-04-22T14:18:29.625Z,24.20
2018-04-22T14:20:55.512Z,25.58
2018-04-22T14:23:21.298Z,26.23
2018-04-22T14:25:47.082Z,26.90
2018-04-22T14:28:12.890Z,23.58
2018-04-22T14:30:38.698Z,23.67
2018-04-22T14:33:04.483Z,24.56
2018-04-22T14:35:30.274Z,26.01
2018-04-22T14:37:56.070Z,27.63
2018-04-22T14:40:21.929Z,26.35
2018-04-22T14:42:47.714Z,25.06
2018-04-22T14:45:25.921Z,24.33
2018-04-22T14:47:51.705Z,25.35
2018-04-22T14:50:17.774Z,25.69
2018-04-22T14:52:43.572Z,25.89
2018-04-22T14:55:09.367Z,24.93
2018-04-22T14:57:35.154Z,25.82
2018-04-22T15:00:00.987Z,25.50
2018-04-22T15:02:26.797Z,26.27
2018-04-22T15:04:52.585Z,27.47
2018-04-22T15:07:18.706Z,27.58
2018-04-22T15:09:44.524Z,27.36
2018-04-22T15:12:10.335Z,28.76
2018-04-22T15:14:36.267Z,29.14
2018-04-22T15:17:02.096Z,29.52
2018-04-22T15:19:27.918Z,30.89
2018-04-22T15:21:53.685Z,29.96
2018-04-22T15:24:19.498Z,29.98
2018-04-22T15:26:45.286Z,31.14
2018-04-22T15:29:11.285Z,30.37
2018-04-22T15:31:37.073Z,30.57
2018-04-22T15:34:02.853Z,29.91
2018-04-22T15:36:29.067Z,30.70
2018-04-22T15:38:54.884Z,29.33
2018-04-22T15:41:21.589Z,29.39
2018-04-22T15:43:47.906Z,29.48
2018-04-22T15:46:13.737Z,31.93
2018-04-22T15:48:39.729Z,30.24
2018-04-22T15:51:06.360Z,32.24
2018-04-22T15:53:33.102Z,31.32
2018-04-22T15:55:59.574Z,32.01
2018-04-22T15:58:25.437Z,32.60
2018-04-22T16:00:51.237Z,32.59
2018-04-22T16:03:17.062Z,31.72
2018-04-22T16:05:42.873Z,32.30
2018-04-22T16:08:08.711Z,32.82
2018-04-22T16:10:34.508Z,32.75
2018-04-22T16:13:00.977Z,32.35
2018-04-22T16:15:26.795Z,33.17
2018-04-22T16:17:54.953Z,33.48
2018-04-22T16:20:22.819Z,33.40
2018-04-22T16:22:49.231Z,33.59
2018-04-22T16:25:15.021Z,34.01
2018-04-22T16:27:41.892Z,34.14
2018-04-22T16:30:07.726Z,34.20
2018-04-22T16:32:33.583Z,33.74
2018-04-22T16:34:59.371Z,33.93
2018-04-22T16:37:25.198Z,33.85
2018-04-22T16:39:50.977Z,33.95
2018-04-22T16:42:16.778Z,35.20
2018-04-22T16:44:42.571Z,34.81
2018-04-22T16:47:08.373Z,34.64
2018-04-22T16:49:34.197Z,34.85
2018-04-22T16:51:59.982Z,34.74
2018-04-22T16:54:25.812Z,35.20
2018-04-22T16:56:52.119Z,35.06
2018-04-22T16:59:18.682Z,35.17
2018-04-22T17:01:44.536Z,35.55
2018-04-22T17:04:10.501Z,35.34
2018-04-22T17:06:36.294Z,35.53
2018-04-22T17:09:03.919Z,35.98
2018-04-22T17:11:29.730Z,35.80
2018-04-22T17:13:55.542Z,36.21
2018-04-22T17:16:21.388Z,36.39
2018-04-22T17:18:47.173Z,36.90
2018-04-22T17:21:12.994Z,36.57
2018-04-22T17:23:38.890Z,37.65
2018-04-22T17:26:04.720Z,36.50
2018-04-22T17:28:37.548Z,36.77
2018-04-22T17:31:04.375Z,37.15
2018-04-22T17:33:31.121Z,37.30
2018-04-22T17:35:56.963Z,38.07
2018-04-22T17:38:22.769Z,37.19
2018-04-22T17:40:48.587Z,39.02
2018-04-22T17:43:14.396Z,38.39
2018-04-22T17:45:40.233Z,38.24
2018-04-22T17:48:06.067Z,38.13
2018-04-22T17:50:31.882Z,38.54
2018-04-22T17:52:57.967Z,38.44
2018-04-22T17:55:23.759Z,38.77
2018-04-22T17:57:49.598Z,39.07
2018-04-22T18:00:15.425Z,39.50
2018-04-22T18:02:41.226Z,39.38
2018-04-22T18:05:07.048Z,40.04
2018-04-22T18:07:32.859Z,39.89
2018-04-22T18:09:58.654Z,40.13
2018-04-22T18:12:24.480Z,40.90
2018-04-22T18:14:50.301Z,43.24
2018-04-22T18:17:16.318Z,40.52
2018-04-22T18:19:42.113Z,40.64
2018-04-22T18:22:08.023Z,42.67
2018-04-22T18:24:33.828Z,41.66
2018-04-22T18:26:59.625Z,43.43
2018-04-22T18:29:25.443Z,41.99
2018-04-22T18:31:52.156Z,41.98
2018-04-22T18:34:18.019Z,42.67
2018-04-22T18:36:43.841Z,43.87
2018-04-22T18:39:09.656Z,45.44
2018-04-22T18:41:35.826Z,45.71
2018-04-22T18:44:08.603Z,46.63
2018-04-22T18:46:34.394Z,47.33
2018-04-22T18:49:00.207Z,48.23
2018-04-22T18:51:26.016Z,49.47
2018-04-22T18:53:51.807Z,50.50
2018-04-22T18:56:17.763Z,50.52
2018-04-22T18:58:43.591Z,51.34
2018-04-22T19:01:09.568Z,51.61
2018-04-22T19:03:35.386Z,52.49
2018-04-22T19:06:01.625Z,52.04
2018-04-22T19:08:27.563Z,52.59
2018-04-22T19:10:53.378Z,53.23
2018-04-22T19:13:19.213Z,52.82
2018-04-22T19:15:44.998Z,52.63
2018-04-22T19:18:11.019Z,52.83
2018-04-22T19:20:36.863Z,54.45
2018-04-22T19:23:02.748Z,54.64
2018-04-22T19:25:28.494Z,56.46
2018-04-22T19:27:54.287Z,55.73
2018-04-22T19:30:20.115Z,56.63
2018-04-22T19:32:46.051Z,58.14
2018-04-22T19:35:11.844Z,56.00
2018-04-22T19:37:37.958Z,57.79
2018-04-22T19:40:03.771Z,56.45
2018-04-22T19:42:29.685Z,57.57
2018-04-22T19:44:55.481Z,54.26
2018-04-22T19:47:21.276Z,55.31
2018-04-22T19:49:47.551Z,57.25
2018-04-22T19:52:13.337Z,58.19
2018-04-22T19:54:39.149Z,58.37
2018-04-22T19:57:05.062Z,59.20
2018-04-22T19:59:30.868Z,59.81
2018-04-22T20:01:56.676Z,60.61
2018-04-22T20:04:22.576Z,59.91
2018-04-22T20:06:48.391Z,60.08
2018-04-22T20:09:14.220Z,60.03
2018-04-22T20:11:40.002Z,61.00
2018-04-22T20:14:05.799Z,60.73
2018-04-22T20:16:31.606Z,60.57
2018-04-22T20:18:57.415Z,60.11
2018-04-22T20:21:23.211Z,60.88
2018-04-22T20:23:49.057Z,60.36
2018-04-22T20:26:14.900Z,61.57
2018-04-22T20:28:40.695Z,61.73
2018-04-22T20:31:06.497Z,62.90
2018-04-22T20:33:32.293Z,62.36
2018-04-22T20:35:58.110Z,61.67
2018-04-22T20:38:24.139Z,60.72
2018-04-22T20:40:49.993Z,60.48
2018-04-22T20:43:15.824Z,60.39
2018-04-22T20:45:41.607Z,59.37
2018-04-22T20:48:07.502Z,58.49
2018-04-22T20:50:33.285Z,57.30
2018-04-22T20:52:59.064Z,58.68
2018-04-22T20:55:25.121Z,59.79
2018-04-22T20:57:52.490Z,60.96
2018-04-22T21:00:18.274Z,60.29
2018-04-22T21:02:44.248Z,59.32
2018-04-22T21:05:10.175Z,59.46
2018-04-22T21:07:36.002Z,57.98
2018-04-22T21:10:01.816Z,59.80
2018-04-22T21:12:27.594Z,61.30
2018-04-22T21:14:53.508Z,62.82
2018-04-22T21:17:19.325Z,62.64
2018-04-22T21:19:45.103Z,62.99
2018-04-22T21:22:10.890Z,63.32
2018-04-22T21:24:36.693Z,63.47
2018-04-22T21:27:02.522Z,62.94
2018-04-22T21:29:28.300Z,62.11
2018-04-22T21:31:54.110Z,61.88
2018-04-22T21:34:19.936Z,62.06
2018-04-22T21:36:45.725Z,62.24
2018-04-22T21:39:11.550Z,62.63
2018-04-22T21:41:37.342Z,62.85
2018-04-22T21:44:03.135Z,63.13
2018-04-22T21:46:29.271Z,65.02
2018-04-22T21:48:55.080Z,66.29
2018-04-22T21:51:21.147Z,66.04
2018-04-22T21:53:46.947Z,66.82
2018-04-22T21:56:12.738Z,66.59
2018-04-22T21:58:38.789Z,66.29
2018-04-22T22:01:04.619Z,67.27
2018-04-22T22:03:30.423Z,67.45
2018-04-22T22:05:56.244Z,67.93
2018-04-22T22:08:22.026Z,68.67
2018-04-22T22:10:47.819Z,69.86
2018-04-22T22:13:13.789Z,70.30
2018-04-22T22:15:39.585Z,71.51
2018-04-22T22:18:05.407Z,71.10
2018-04-22T22:20:31.204Z,72.09
2018-04-22T22:22:56.996Z,71.63
2018-04-22T22:25:22.789Z,71.47
2018-04-22T22:27:48.592Z,71.74
2018-04-22T22:30:14.374Z,71.04
2018-04-22T22:32:40.405Z,72.85
2018-04-22T22:35:06.184Z,73.55
2018-04-22T22:37:31.990Z,73.03
2018-04-22T22:39:57.770Z,72.20
2018-04-22T22:42:23.727Z,71.08
2018-04-22T22:44:49.725Z,72.32
2018-04-22T22:47:15.522Z,70.73
2018-04-22T22:49:41.314Z,70.98
2018-04-22T22:52:07.114Z,72.50
2018-04-22T22:54:32.905Z,71.89
2018-04-22T22:56:58.726Z,71.03
2018-04-22T22:59:24.521Z,73.10
2018-04-22T23:01:50.321Z,72.47
2018-04-22T23:04:16.305Z,72.49
2018-04-22T23:06:42.101Z,71.50
2018-04-22T23:09:07.931Z,72.69
2018-04-22T23:11:33.710Z,72.63
2018-04-22T23:13:59.501Z,73.29
2018-04-22T23:16:25.308Z,73.27
2018-04-22T23:18:51.118Z,73.54
2018-04-22T23:21:16.917Z,75.40
2018-04-22T23:23:42.733Z,76.50
2018-04-22T23:26:08.669Z,75.28
2018-04-22T23:28:34.437Z,73.97
2018-04-22T23:31:00.245Z,75.31
2018-04-22T23:33:26.038Z,75.38
2018-04-22T23:35:51.814Z,76.64
2018-04-22T23:38:17.632Z,75.25
2018-04-22T23:40:43.425Z,76.05
2018-04-22T23:43:09.231Z,74.58
2018-04-22T23:45:35.028Z,75.25
2018-04-22T23:48:00.816Z,75.12
2018-04-22T23:50:26.620Z,75.91
2018-04-22T23:52:52.402Z,76.84
2018-04-22T23:55:18.337Z,75.68
2018-04-22T23:57:44.150Z,75.08
